MLBA4: Mulberry River at Mulberry, AR

                                SHEF ID:       MLBA4     Mulberry River near Mulberry. AR
STATION TYPE: Stream Gauge

PRECIP STAGE RIV-FLOW BAT-LOAD
in ft cfs volt
Ccp-Rev Ccp-Rev Ccp-Rev Ccp-Rev
(America/Chicago)
06/16 00:00 0.00 3.51 1458 13.42
06/16 01:00 0.00 3.40 1386 13.39
06/16 02:00 0.00 3.45 1418 13.42
06/16 03:00 0.00 3.44 1412 13.44
06/16 04:00 0.00 3.37 1367 13.45
06/16 05:00 0.00 3.34 1348 13.45
06/16 06:00 0.00 3.35 1354 13.45
06/16 07:00 0.00 3.27 1304 13.46
06/16 08:00 0.00 3.26 1297 13.47
06/16 09:00 0.00 3.22 1273 13.47
06/16 10:00 0.00 3.24 1285 13.46
06/16 11:00 0.00 3.21 1266 13.45
06/16 12:00 0.00 3.21 1266 13.44
06/16 13:00 0.00 3.18 1248 13.42
06/16 14:00 0.00 3.15 1230 13.41
06/16 15:00 0.00 3.14 1224 13.42
06/16 16:00 0.00 3.12 1212 13.41
06/16 17:00 0.00 3.10 1200 13.41
06/16 18:00 0.00 3.09 1194 13.39
06/16 19:00 0.00 3.10 1200 13.39
06/16 20:00 0.00 3.00 1140 13.36
06/16 21:00 0.00 3.02 1152 13.36
06/16 22:00 0.00 3.01 1146 13.38
06/16 23:00 0.00 3.03 1158 13.39
Data processed at Mon 22Jun2026 03:40 GMT

NOTICE: If you are parsing this page

Please convert to using our Data API. Starting early 2026 we will be migrating to: https://water.usace.army.mil with modern pages rendered in JavaScript. When this migration completes you will no longer be able to scrape this page! CWMSDataAPI (CDA)

Timeseries IDs (TSIDs)

TSIDs used from left to right in the data table
MULB.Precip-Inc.Total.1Hour.1Hour.Ccp-Rev
MULB.Stage.Inst.1Hour.0.Ccp-Rev
MULB.Flow.Inst.1Hour.0.Ccp-Rev
MULB.Volt-Battery Load.Inst.1Hour.0.Ccp-Rev

                            

All information presented herein is the property of the government of the United States of America and may be revised or deleted at any time without prior notice. Dissemination of this information without the expressed written consent of the Public Affairs Office, Tulsa District U.S. Army Corps of Engineers is strictly prohibited. These data are gathered electronically and, as presented, have NOT undergone any form of quality control. These data are NOT guaranteed to be valid or correct.